KTYR/TYR METAR and TAF weather

Enter ICAO airport designator
Station Type Date Time Source
KTYR METAR 2021/02/27 21:53 UTC NOAA

KTYR 272153Z 19014G21KT 10SM SCT043 OVC090 24/16 A2986 RMK AO2 SLP106 T02390156


Station Type Date Time Source
KTYR Decoded METAR 2021/02/27 21:53 UTC NOAA

TYLER POUNDS FIELDS, TX, United States (KTYR) 32-21N 095-24W 165M
Feb 27, 2021 - 04:53 PM EST / 2021.02.27 2153 UTC
Wind: from the S (190 degrees) at 16 MPH (14 KT) gusting to 24 MPH (21 KT):0
Visibility: 10 mile(s):0
Sky conditions: overcast
Temperature: 75.0 F (23.9 C)
Dew Point: 60.1 F (15.6 C)
Relative Humidity: 59%
Pressure (altimeter): 29.86 in. Hg (1011 hPa)
ob: KTYR 272153Z 19014G21KT 10SM SCT043 OVC090 24/16 A2986 RMK AO2 SLP106 T02390156
cycle: 22

Station Type Date Time Source
KTYR TAF 2021/02/27 19:15 UTC NOAA

TAF
AMD KTYR 271913Z 2719/2818 16010G15KT P6SM BKN015
TEMPO 2720/2723 SCT025 SCT250
FM272300 17009KT P6SM SCT035 BKN250
FM280300 18010KT P6SM OVC010
FM281700 20010G15KT P6SM VCSH OVC015

Example: see airport list